Dauntless Aviation
Airports North America United States Colorado
98CO

NCMC HELIPORT

GREELEY, CO, USA

Airport Info
Suggest Updated Information for this Airport

Location

Latitude / Longitude: 40°24'53"N / 104°42'39"W
  40°24.8908'N / 104°42.6508'W
  40.4148 / -104.7108
Elevation: 4882.0 ft. (estimated)
Variation: 12E (1985)
From city: 00 miles N of GREELEY, CO

Operations

Facility use: Private
Sectional chart: DENVER
Control tower: no
Boundary ARTCC: DENVER
FSS: DENVER [1-800-WX-BRIEF]
Segmented circle: no

Communications

Nearby radio navigation aids

VOR radial/distance VOR name Freq Var
GLL 234oT/9.0 GILL VORTAC 114.20 13E
DVV 353oT/31.5 MILE HIGH VORTAC 114.70 11E
BJC 33oT/36.0 JEFFCO VOR/DME 115.40 11E
DEN 356oT/36.2 DENVER VOR/DME 117.90 11E
 
NDB name Hdg/Dist Freq Var ID

Services

Runway Information

Helipad H1

Dimensions: 40 x 40 ft.
Surface: PORTLAND CEMENT CONCRETE,NO SPECIAL SURFACE TREATMENT
Latitude: 40-24-53.4500N
Longitude: 104-42-39.0500W
Elevation: 4882.0 ft. ft.
 

Additional Remarks

Instrument Procedures

No published instrument procedures available
Topographic chart at:
Satellite photo at:
Airport distance calculator
From:
Weather Reports

METAR

KFNL
14.1nm W
KFNL 121256Z AUTO 29004KT 10SM CLR M03/M09 A3035 RMK AO2 SLP291 T10281089 FZRANO
KLMO
25.6nm SW
KLMO 121335Z AUTO 00000KT 10SM CLR M05/M10 A3036 RMK AO2 T10501103
KEIK
28.5nm S
KEIK 121342Z AUTO 00000KT 10SM CLR M06/M10 A3041 RMK AO2 T10631105
KBDU
33.1nm SW
KBDU 121330Z AUTO 21003KT 10SM CLR 00/M11 A3034 RMK AO2
KDEN
34.0nm SE
KDEN 121353Z 21013KT 10SM FEW220 03/M14 A3034 RMK AO2 SLP278 T00331139
KBJC
35.7nm S
KBJC 121347Z 00000KT 30SM SKC 02/M13 A3035

TAF

KDEN
34.0nm SE
KDEN 121121Z 1212/1318 20012KT P6SM SKC FM121800 VRB05KT P6SM SKC FM122000 06007KT P6SM FEW250 FM130100 17008KT P6SM FEW250 FM130300 22010KT P6SM SCT220 FM131700 VRB04KT P6SM SCT200
KBJC
35.7nm S
KBJC 121121Z 1212/1312 23005KT P6SM SKC FM121700 29005KT P6SM SKC FM121900 07005KT P6SM SKC FM130100 24007KT P6SM FEW220
Safelog

 

Dauntless Aviation

© 2007-2017 Dauntless Aviation, all rights reserved
Information provided via PilotNav comes from a variety of official and unofficial data sources. As errors are possible, do not use PilotNav for primary flight planning purposes. Verify any information that you receive via PilotNav with current and canonical charts and other official documents. The material in this database is subject to database copyrights held by Dauntless Aviation and may not be copied without the express permission of Dauntless Aviation - licenses for use of part of all of this data are available for purchase; enquire via the Dauntless Aviation helpdesk. A number of mechanisms and markers exist in the database to protect against and identify infringement / copyright. Automated queries against this website are stictly prohibited, and all activity is logged and analyzed.